createdAt,value
2018-06-24T00:00:02.692Z,5.63
2018-06-24T00:02:35.857Z,5.63
2018-06-24T00:05:09.044Z,6.13
2018-06-24T00:07:42.172Z,4.90
2018-06-24T00:10:15.338Z,5.30
2018-06-24T00:12:48.437Z,4.97
2018-06-24T00:15:21.623Z,4.83
2018-06-24T00:17:54.828Z,3.93
2018-06-24T00:20:28.000Z,4.87
2018-06-24T00:23:01.177Z,4.10
2018-06-24T00:25:34.221Z,4.50
2018-06-24T00:28:07.323Z,5.00
2018-06-24T00:30:38.944Z,3.70
2018-06-24T00:33:12.109Z,4.43
2018-06-24T00:35:45.186Z,4.40
2018-06-24T00:38:18.191Z,4.50
2018-06-24T00:40:51.314Z,4.37
2018-06-24T00:43:24.371Z,5.17
2018-06-24T00:45:57.485Z,4.20
2018-06-24T00:48:30.521Z,4.13
2018-06-24T00:51:03.590Z,4.10
2018-06-24T00:53:36.644Z,3.87
2018-06-24T00:56:09.826Z,4.87
2018-06-24T00:58:44.813Z,4.43
2018-06-24T01:01:18.169Z,4.30
2018-06-24T01:03:51.323Z,3.63
2018-06-24T01:06:24.406Z,4.70
2018-06-24T01:08:57.540Z,4.37
2018-06-24T01:11:30.627Z,4.60
2018-06-24T01:14:04.161Z,3.07
2018-06-24T01:16:36.936Z,3.37
2018-06-24T01:19:10.034Z,3.73
2018-06-24T01:21:43.279Z,3.80
2018-06-24T01:24:16.356Z,3.97
2018-06-24T01:26:49.625Z,3.23
2018-06-24T01:29:22.836Z,3.53
2018-06-24T01:31:55.906Z,3.93
2018-06-24T01:34:29.106Z,3.57
2018-06-24T01:37:02.282Z,2.83
2018-06-24T01:39:35.698Z,3.40
2018-06-24T01:42:08.752Z,2.90
2018-06-24T01:44:41.885Z,2.97
2018-06-24T01:47:14.883Z,3.47
2018-06-24T01:49:48.026Z,3.13
2018-06-24T01:52:21.140Z,4.33
2018-06-24T01:54:54.305Z,3.77
2018-06-24T01:57:27.704Z,3.97
2018-06-24T02:00:00.758Z,4.40
2018-06-24T02:02:33.876Z,4.10
2018-06-24T02:05:06.994Z,3.87
2018-06-24T02:07:40.093Z,4.10
2018-06-24T02:10:13.360Z,3.40
2018-06-24T02:12:46.464Z,4.00
2018-06-24T02:15:19.524Z,3.30
2018-06-24T02:17:52.617Z,3.93
2018-06-24T02:20:25.728Z,3.90
2018-06-24T02:22:58.892Z,3.90
2018-06-24T02:25:31.973Z,3.87
2018-06-24T02:28:05.037Z,3.40
2018-06-24T02:30:38.260Z,3.50
2018-06-24T02:33:11.283Z,3.50
2018-06-24T02:35:45.315Z,4.57
2018-06-24T02:38:18.450Z,3.63
2018-06-24T02:40:51.626Z,3.80
2018-06-24T02:43:24.720Z,3.70
2018-06-24T02:45:57.790Z,4.77
2018-06-24T02:48:30.929Z,4.40
2018-06-24T02:51:04.059Z,4.80
2018-06-24T02:53:36.018Z,4.30
2018-06-24T02:56:09.218Z,3.90
2018-06-24T02:58:42.273Z,3.53
2018-06-24T03:01:15.293Z,3.50
2018-06-24T03:03:48.370Z,4.17
2018-06-24T03:06:21.685Z,4.03
2018-06-24T03:08:54.809Z,3.77
2018-06-24T03:11:27.817Z,3.00
2018-06-24T03:14:01.888Z,3.57
2018-06-24T03:16:35.108Z,2.77
2018-06-24T03:19:08.973Z,3.20
2018-06-24T03:21:42.086Z,3.50
2018-06-24T03:24:15.211Z,3.63
2018-06-24T03:26:52.536Z,3.40
2018-06-24T03:29:25.622Z,3.40
2018-06-24T03:31:58.921Z,3.30
2018-06-24T03:34:31.972Z,3.07
2018-06-24T03:37:05.111Z,3.53
2018-06-24T03:39:38.311Z,3.67
2018-06-24T03:42:11.353Z,3.30
2018-06-24T03:44:45.092Z,3.50
2018-06-24T03:47:18.344Z,3.77
2018-06-24T03:49:51.406Z,3.53
2018-06-24T03:52:24.457Z,3.97
2018-06-24T03:54:56.077Z,4.43
2018-06-24T03:57:29.145Z,3.60
2018-06-24T04:02:40.007Z,3.83
2018-06-24T04:05:13.706Z,3.37
2018-06-24T04:07:46.787Z,3.83
2018-06-24T04:10:19.812Z,3.70
2018-06-24T04:12:53.124Z,4.00
2018-06-24T04:15:26.145Z,3.90
2018-06-24T04:17:59.364Z,3.53
2018-06-24T04:20:32.547Z,3.40
2018-06-24T04:23:05.715Z,3.90
2018-06-24T04:25:38.868Z,3.20
2018-06-24T04:28:12.137Z,3.40
2018-06-24T04:30:45.232Z,3.27
2018-06-24T04:33:18.395Z,3.03
2018-06-24T04:35:51.551Z,3.13
2018-06-24T04:38:24.636Z,3.67
2018-06-24T04:40:57.847Z,3.00
2018-06-24T04:43:31.264Z,3.00
2018-06-24T04:46:03.235Z,3.80
2018-06-24T04:48:36.413Z,3.40
2018-06-24T04:51:08.133Z,3.80
2018-06-24T04:53:41.228Z,3.33
2018-06-24T04:56:14.380Z,4.00
2018-06-24T04:58:47.478Z,3.50
2018-06-24T05:01:20.616Z,3.47
2018-06-24T05:03:53.857Z,3.73
2018-06-24T05:06:27.101Z,4.10
2018-06-24T05:09:00.216Z,2.90
2018-06-24T05:11:33.273Z,3.63
2018-06-24T05:14:06.286Z,3.80
2018-06-24T05:16:39.413Z,3.23
2018-06-24T05:19:12.600Z,3.87
2018-06-24T05:21:45.767Z,3.50
2018-06-24T05:24:18.855Z,4.40
2018-06-24T05:26:51.908Z,4.60
2018-06-24T05:29:25.227Z,4.83
2018-06-24T05:31:58.465Z,8.10
2018-06-24T05:34:31.532Z,7.73
2018-06-24T05:37:04.633Z,7.93
2018-06-24T05:39:37.762Z,7.80
2018-06-24T05:42:10.896Z,5.73
2018-06-24T05:44:51.139Z,5.90
2018-06-24T05:47:24.612Z,6.10
2018-06-24T05:49:57.713Z,3.23
2018-06-24T05:52:30.851Z,3.23
2018-06-24T05:55:03.909Z,2.80
2018-06-24T05:57:36.937Z,3.03
2018-06-24T06:00:12.501Z,3.17
2018-06-24T06:02:45.649Z,2.83
2018-06-24T06:05:18.685Z,1.70
2018-06-24T06:07:51.824Z,1.73
2018-06-24T06:10:25.027Z,2.47
2018-06-24T06:12:56.856Z,1.80
2018-06-24T06:15:29.981Z,2.27
2018-06-24T06:18:03.049Z,2.07
2018-06-24T06:20:36.146Z,2.27
2018-06-24T06:23:09.214Z,2.20
2018-06-24T06:25:42.361Z,1.90
2018-06-24T06:28:15.443Z,2.30
2018-06-24T06:30:48.659Z,2.40
2018-06-24T06:33:21.774Z,2.27
2018-06-24T06:35:55.292Z,2.20
2018-06-24T06:38:28.585Z,2.43
2018-06-24T06:41:01.585Z,2.07
2018-06-24T06:43:34.775Z,2.43
2018-06-24T06:46:11.455Z,2.40
2018-06-24T06:48:44.573Z,2.13
2018-06-24T06:51:17.616Z,2.70
2018-06-24T06:53:50.648Z,2.10
2018-06-24T06:56:23.744Z,2.77
2018-06-24T06:58:56.797Z,2.50
2018-06-24T07:01:30.194Z,3.27
2018-06-24T07:04:03.246Z,2.10
2018-06-24T07:06:36.726Z,2.30
2018-06-24T07:09:12.518Z,2.60
2018-06-24T07:11:45.678Z,2.80
2018-06-24T07:14:18.846Z,3.17
2018-06-24T07:16:51.931Z,2.40
2018-06-24T07:19:25.241Z,2.90
2018-06-24T07:21:58.311Z,3.00
2018-06-24T07:24:31.447Z,3.07
2018-06-24T07:27:04.625Z,2.50
2018-06-24T07:29:37.874Z,2.70
2018-06-24T07:32:10.953Z,3.20
2018-06-24T07:34:44.060Z,3.37
2018-06-24T07:37:17.107Z,2.30
2018-06-24T07:39:50.259Z,3.47
2018-06-24T07:42:23.412Z,3.20
2018-06-24T07:44:56.422Z,2.97
2018-06-24T07:47:29.453Z,3.30
2018-06-24T07:50:02.514Z,3.10
2018-06-24T07:52:35.606Z,2.83
2018-06-24T07:55:09.049Z,3.73
2018-06-24T07:57:42.052Z,2.93
2018-06-24T08:00:15.156Z,3.20
2018-06-24T08:02:48.367Z,2.90
2018-06-24T08:05:21.606Z,2.90
2018-06-24T08:07:54.923Z,2.40
2018-06-24T08:10:28.189Z,2.30
2018-06-24T08:13:01.312Z,2.10
2018-06-24T08:15:34.398Z,2.63
2018-06-24T08:18:07.496Z,3.03
2018-06-24T08:20:40.634Z,2.97
2018-06-24T08:23:13.592Z,3.27
2018-06-24T08:25:46.731Z,2.83
2018-06-24T08:28:19.810Z,2.27
2018-06-24T08:30:52.847Z,3.13
2018-06-24T08:33:25.867Z,2.70
2018-06-24T08:35:58.996Z,2.53
2018-06-24T08:38:31.981Z,3.80
2018-06-24T08:41:05.161Z,3.30
2018-06-24T08:43:38.312Z,4.10
2018-06-24T08:46:11.610Z,3.87
2018-06-24T08:48:44.691Z,3.90
2018-06-24T08:51:17.721Z,3.60
2018-06-24T08:53:50.692Z,3.70
2018-06-24T08:56:23.749Z,4.60
2018-06-24T08:58:57.242Z,4.10
2018-06-24T09:01:30.311Z,5.10
2018-06-24T09:04:03.368Z,3.90
2018-06-24T09:06:36.548Z,4.80
2018-06-24T09:09:12.449Z,4.87
2018-06-24T09:11:45.634Z,4.37
2018-06-24T09:14:18.773Z,4.40
2018-06-24T09:16:51.909Z,3.70
2018-06-24T09:19:25.038Z,4.37
2018-06-24T09:21:58.192Z,4.20
2018-06-24T09:24:31.429Z,4.00
2018-06-24T09:27:04.473Z,4.50
2018-06-24T09:29:37.692Z,4.10
2018-06-24T09:32:10.835Z,3.90
2018-06-24T09:34:43.979Z,3.50
2018-06-24T09:37:17.174Z,3.80
2018-06-24T09:39:50.310Z,4.13
2018-06-24T09:42:23.784Z,3.40
2018-06-24T09:44:57.056Z,3.73
2018-06-24T09:47:30.389Z,3.20
2018-06-24T09:50:03.420Z,3.70
2018-06-24T09:52:36.469Z,3.80
2018-06-24T09:55:09.452Z,2.80
2018-06-24T09:57:42.492Z,3.50
2018-06-24T10:00:19.789Z,2.87
2018-06-24T10:02:53.957Z,3.00
2018-06-24T10:05:27.117Z,3.90
2018-06-24T10:08:00.179Z,3.60
2018-06-24T10:10:33.368Z,3.20
2018-06-24T10:13:06.426Z,3.27
2018-06-24T10:15:39.601Z,2.73
2018-06-24T10:18:12.674Z,2.87
2018-06-24T10:20:46.027Z,3.30
2018-06-24T10:23:19.177Z,3.70
2018-06-24T10:25:52.241Z,3.37
2018-06-24T10:28:25.324Z,4.63
2018-06-24T10:30:58.456Z,3.03
2018-06-24T10:33:31.725Z,4.07
2018-06-24T10:36:04.761Z,4.50
2018-06-24T10:38:37.768Z,4.37
2018-06-24T10:41:11.006Z,3.50
2018-06-24T10:43:44.145Z,3.73
2018-06-24T10:46:17.213Z,3.40
2018-06-24T10:48:50.487Z,3.47
2018-06-24T10:51:23.536Z,4.40
2018-06-24T10:53:56.683Z,4.50
2018-06-24T10:56:29.844Z,4.40
2018-06-24T10:59:02.982Z,4.00
2018-06-24T11:01:36.102Z,3.70
2018-06-24T11:04:09.157Z,4.50
2018-06-24T11:06:42.308Z,4.33
2018-06-24T11:09:15.404Z,3.77
2018-06-24T11:11:48.580Z,4.57
2018-06-24T11:14:21.762Z,4.77
2018-06-24T11:16:55.198Z,4.93
2018-06-24T11:19:28.341Z,5.20
2018-06-24T11:22:01.580Z,5.17
2018-06-24T11:24:34.729Z,5.03
2018-06-24T11:27:07.843Z,4.83
2018-06-24T11:29:40.907Z,4.23
2018-06-24T11:32:14.077Z,4.60
2018-06-24T11:34:47.177Z,4.70
2018-06-24T11:37:20.224Z,4.10
2018-06-24T11:39:53.418Z,4.90
2018-06-24T11:42:26.613Z,5.30
2018-06-24T11:44:59.738Z,4.60
2018-06-24T11:47:33.226Z,5.20
2018-06-24T11:50:06.397Z,4.87
2018-06-24T11:52:39.544Z,5.07
2018-06-24T11:55:12.657Z,4.80
2018-06-24T11:57:45.845Z,4.83
2018-06-24T12:00:17.431Z,5.13
2018-06-24T12:02:50.536Z,4.93
2018-06-24T12:05:23.816Z,4.87
2018-06-24T12:07:56.964Z,5.00
2018-06-24T12:10:30.076Z,5.13
2018-06-24T12:13:01.766Z,4.43
2018-06-24T12:15:34.889Z,4.60
2018-06-24T12:18:08.249Z,4.20
2018-06-24T12:20:41.485Z,4.10
2018-06-24T12:23:14.626Z,4.87
2018-06-24T12:25:47.825Z,4.80
2018-06-24T12:28:21.061Z,4.40
2018-06-24T12:30:54.626Z,4.13
2018-06-24T12:33:27.704Z,3.90
2018-06-24T12:36:00.867Z,4.33
2018-06-24T12:38:33.987Z,4.10
2018-06-24T12:41:07.012Z,4.03
2018-06-24T12:43:44.979Z,3.60
2018-06-24T12:46:18.100Z,3.77
2018-06-24T12:48:52.181Z,3.57
2018-06-24T12:51:25.281Z,3.33
2018-06-24T12:53:59.352Z,4.57
2018-06-24T12:56:33.717Z,3.70
2018-06-24T12:59:07.550Z,4.43
2018-06-24T13:01:40.858Z,4.27
2018-06-24T13:04:13.888Z,3.70
2018-06-24T13:06:47.029Z,3.83
2018-06-24T13:09:20.161Z,3.70
2018-06-24T13:11:53.431Z,3.87
2018-06-24T13:14:26.576Z,3.20
2018-06-24T13:16:59.651Z,3.80
2018-06-24T13:19:33.905Z,3.70
2018-06-24T13:22:06.995Z,3.50
2018-06-24T13:24:40.306Z,4.37
2018-06-24T13:27:13.405Z,4.97
2018-06-24T13:29:46.584Z,4.80
2018-06-24T13:32:19.749Z,4.70
2018-06-24T13:34:52.959Z,4.50
2018-06-24T13:37:26.254Z,3.90
2018-06-24T13:39:59.525Z,3.83
2018-06-24T13:42:32.817Z,5.40
2018-06-24T13:45:07.046Z,4.23
2018-06-24T13:47:40.320Z,4.77
2018-06-24T13:50:13.959Z,5.50
2018-06-24T13:52:47.284Z,5.93
2018-06-24T13:55:20.588Z,6.40
2018-06-24T13:57:53.720Z,6.83
2018-06-24T14:00:27.630Z,6.97
2018-06-24T14:03:01.893Z,6.10
2018-06-24T14:05:34.933Z,6.77
2018-06-24T14:08:08.361Z,6.23
2018-06-24T14:10:41.476Z,6.70
2018-06-24T14:13:14.594Z,7.77
2018-06-24T14:15:48.209Z,7.47
2018-06-24T14:18:21.395Z,7.07
2018-06-24T14:20:54.637Z,7.93
2018-06-24T14:23:27.826Z,6.63
2018-06-24T14:26:01.088Z,8.13
2018-06-24T14:28:34.158Z,6.77
2018-06-24T14:31:07.568Z,7.10
2018-06-24T14:33:40.727Z,8.57
2018-06-24T14:36:13.753Z,7.03
2018-06-24T14:38:47.155Z,7.20
2018-06-24T14:41:20.307Z,6.97
2018-06-24T14:43:53.373Z,8.57
2018-06-24T14:46:26.549Z,7.70
2018-06-24T14:48:59.675Z,6.73
2018-06-24T14:51:32.812Z,6.70
2018-06-24T14:54:05.920Z,7.37
2018-06-24T14:56:39.144Z,8.00
2018-06-24T14:59:12.345Z,7.70
2018-06-24T15:01:45.432Z,7.67
2018-06-24T15:04:18.600Z,7.93
2018-06-24T15:06:51.645Z,7.77
2018-06-24T15:09:24.765Z,7.17
2018-06-24T15:11:57.886Z,6.37
2018-06-24T15:14:30.972Z,7.10
2018-06-24T15:17:04.157Z,8.27
2018-06-24T15:19:37.320Z,8.70
2018-06-24T15:22:10.424Z,7.13
2018-06-24T15:24:43.461Z,6.93
2018-06-24T15:27:16.582Z,7.70
2018-06-24T15:29:49.656Z,7.23
2018-06-24T15:32:22.948Z,6.73
2018-06-24T15:34:56.011Z,7.30
2018-06-24T15:37:29.030Z,6.60
2018-06-24T15:40:02.211Z,7.27
2018-06-24T15:42:35.288Z,8.27
2018-06-24T15:45:08.645Z,7.40
2018-06-24T15:47:42.097Z,7.30
2018-06-24T15:50:15.296Z,8.83
2018-06-24T15:52:48.301Z,6.30
2018-06-24T15:55:21.476Z,8.30
2018-06-24T15:57:54.615Z,7.40
2018-06-24T16:00:27.703Z,8.20
2018-06-24T16:03:00.734Z,8.20
2018-06-24T16:05:33.765Z,8.87
2018-06-24T16:08:06.799Z,8.70
2018-06-24T16:10:39.907Z,8.40
2018-06-24T16:13:13.009Z,7.90
2018-06-24T16:15:46.147Z,7.30
2018-06-24T16:18:19.339Z,7.60
2018-06-24T16:20:50.936Z,8.50
2018-06-24T16:23:24.148Z,8.10
2018-06-24T16:25:57.686Z,8.70
2018-06-24T16:28:30.728Z,9.03
2018-06-24T16:31:03.841Z,8.10
2018-06-24T16:33:36.936Z,7.63
2018-06-24T16:36:10.075Z,7.07
2018-06-24T16:38:43.211Z,7.60
2018-06-24T16:41:16.338Z,8.23
2018-06-24T16:43:49.368Z,6.60
2018-06-24T16:46:24.159Z,7.53
2018-06-24T16:48:57.296Z,7.17
2018-06-24T16:51:30.657Z,6.70
2018-06-24T16:54:03.778Z,7.83
2018-06-24T16:56:36.878Z,7.60
2018-06-24T16:59:10.148Z,5.70
2018-06-24T17:01:43.242Z,6.80
2018-06-24T17:04:16.375Z,5.87
2018-06-24T17:06:50.648Z,6.80
2018-06-24T17:09:23.881Z,7.27
2018-06-24T17:11:56.880Z,5.53
2018-06-24T17:14:30.000Z,5.90
2018-06-24T17:17:03.099Z,6.30
2018-06-24T17:19:36.292Z,4.63
2018-06-24T17:22:09.541Z,5.50
2018-06-24T17:24:44.503Z,5.50
2018-06-24T17:27:18.480Z,6.37
2018-06-24T17:29:51.517Z,5.20
2018-06-24T17:32:26.053Z,5.50
2018-06-24T17:34:59.063Z,6.50
2018-06-24T17:37:32.190Z,4.93
2018-06-24T17:40:05.224Z,5.93
2018-06-24T17:42:38.326Z,5.17
2018-06-24T17:45:11.507Z,5.50
2018-06-24T17:47:44.662Z,5.33
2018-06-24T17:50:17.750Z,4.40
2018-06-24T17:52:50.981Z,4.40
2018-06-24T17:55:24.169Z,4.73
2018-06-24T17:57:57.237Z,4.80
2018-06-24T18:00:30.424Z,5.43
2018-06-24T18:03:03.564Z,6.37
2018-06-24T18:05:35.174Z,5.10
2018-06-24T18:08:08.387Z,5.80
2018-06-24T18:10:45.400Z,5.17
2018-06-24T18:13:18.596Z,6.03
2018-06-24T18:15:51.748Z,5.40
2018-06-24T18:18:25.177Z,4.73
2018-06-24T18:20:58.318Z,4.60
2018-06-24T18:23:31.381Z,4.90
2018-06-24T18:26:04.634Z,5.10
2018-06-24T18:28:37.704Z,4.53
2018-06-24T18:31:10.861Z,4.40
2018-06-24T18:33:44.039Z,4.03
2018-06-24T18:36:17.108Z,4.47
2018-06-24T18:38:50.221Z,4.17
2018-06-24T18:41:23.337Z,4.30
2018-06-24T18:43:56.409Z,4.20
2018-06-24T18:46:29.492Z,3.80
2018-06-24T18:49:02.859Z,4.03
2018-06-24T18:51:36.154Z,4.30
2018-06-24T18:54:09.642Z,3.97
2018-06-24T18:56:42.869Z,4.40
2018-06-24T18:59:15.868Z,4.43
2018-06-24T19:01:48.999Z,4.00
2018-06-24T19:04:22.027Z,4.03
2018-06-24T19:06:55.224Z,4.20
2018-06-24T19:09:28.605Z,3.70
2018-06-24T19:12:01.737Z,4.53
2018-06-24T19:14:34.763Z,4.50
2018-06-24T19:17:07.891Z,4.07
2018-06-24T19:19:40.949Z,5.03
2018-06-24T19:22:13.975Z,4.53
2018-06-24T19:24:47.051Z,3.63
2018-06-24T19:27:20.168Z,4.10
2018-06-24T19:29:53.352Z,5.20
2018-06-24T19:32:26.966Z,3.70
2018-06-24T19:35:00.180Z,3.30
2018-06-24T19:37:33.362Z,3.60
2018-06-24T19:40:06.581Z,4.30
2018-06-24T19:42:39.732Z,3.97
2018-06-24T19:45:12.860Z,3.40
2018-06-24T19:47:45.940Z,3.83
2018-06-24T19:50:21.069Z,3.87
2018-06-24T19:53:02.873Z,3.30
2018-06-24T19:55:38.968Z,3.70
2018-06-24T19:58:12.045Z,3.23
2018-06-24T20:00:45.140Z,3.50
2018-06-24T20:03:18.524Z,3.73
2018-06-24T20:05:51.760Z,3.43
2018-06-24T20:08:25.651Z,4.57
2018-06-24T20:10:58.719Z,4.00
2018-06-24T20:13:31.793Z,4.07
2018-06-24T20:16:04.900Z,3.57
2018-06-24T20:18:37.990Z,3.57
2018-06-24T20:21:11.188Z,3.63
2018-06-24T20:23:44.331Z,5.10
2018-06-24T20:26:17.397Z,3.70
2018-06-24T20:28:50.498Z,4.43
2018-06-24T20:31:23.581Z,4.23
2018-06-24T20:33:56.975Z,4.07
2018-06-24T20:36:30.042Z,3.30
2018-06-24T20:39:03.150Z,3.93
2018-06-24T20:41:36.344Z,3.93
2018-06-24T20:44:09.396Z,4.97
2018-06-24T20:46:42.764Z,4.30
2018-06-24T20:49:15.821Z,4.77
2018-06-24T20:51:48.900Z,3.50
2018-06-24T20:54:22.108Z,3.80
2018-06-24T20:56:55.252Z,3.23
2018-06-24T20:59:28.375Z,4.33
2018-06-24T21:02:01.615Z,3.53
2018-06-24T21:04:38.145Z,3.80
2018-06-24T21:07:12.061Z,4.10
2018-06-24T21:09:47.248Z,4.57
2018-06-24T21:12:20.344Z,4.07
2018-06-24T21:14:53.576Z,4.20
2018-06-24T21:17:26.720Z,5.00
2018-06-24T21:19:59.773Z,4.03
2018-06-24T21:22:32.879Z,4.90
2018-06-24T21:25:06.005Z,4.57
2018-06-24T21:27:39.130Z,4.50
2018-06-24T21:30:12.234Z,4.17
2018-06-24T21:32:45.411Z,3.00
2018-06-24T21:35:18.535Z,3.93
2018-06-24T21:37:51.471Z,2.77
2018-06-24T21:40:24.914Z,3.87
2018-06-24T21:42:58.069Z,2.40
2018-06-24T21:45:31.147Z,2.53
2018-06-24T21:48:04.233Z,2.80
2018-06-24T21:50:37.310Z,3.63
2018-06-24T21:53:11.503Z,3.20
2018-06-24T21:55:51.693Z,3.60
2018-06-24T21:58:24.904Z,3.53
2018-06-24T22:00:57.888Z,3.67
2018-06-24T22:03:31.061Z,3.27
2018-06-24T22:06:04.186Z,3.50
2018-06-24T22:08:37.372Z,3.63
2018-06-24T22:11:11.549Z,4.13
2018-06-24T22:13:44.533Z,3.30
2018-06-24T22:16:17.732Z,3.57
2018-06-24T22:18:50.816Z,4.50
2018-06-24T22:21:23.951Z,3.20
2018-06-24T22:23:58.159Z,3.20
2018-06-24T22:26:31.274Z,3.33
2018-06-24T22:29:04.456Z,3.57
2018-06-24T22:31:37.642Z,3.63
2018-06-24T22:34:12.457Z,3.77
2018-06-24T22:36:45.542Z,2.20
2018-06-24T22:39:18.582Z,3.30
2018-06-24T22:41:51.866Z,3.53
2018-06-24T22:44:24.876Z,2.80
2018-06-24T22:46:57.853Z,3.90
2018-06-24T22:49:30.969Z,3.47
2018-06-24T22:52:03.972Z,2.87
2018-06-24T22:54:37.094Z,2.60
2018-06-24T22:57:11.146Z,3.20
2018-06-24T22:59:53.208Z,2.80
2018-06-24T23:02:26.224Z,2.97
2018-06-24T23:04:59.277Z,2.80
2018-06-24T23:07:32.304Z,3.00
2018-06-24T23:10:06.423Z,2.97
2018-06-24T23:12:39.442Z,3.57
2018-06-24T23:15:13.146Z,2.50
2018-06-24T23:17:46.265Z,2.60
2018-06-24T23:20:19.493Z,2.80
2018-06-24T23:22:52.567Z,2.27
2018-06-24T23:25:26.602Z,2.30
2018-06-24T23:27:59.747Z,2.80
2018-06-24T23:30:32.877Z,3.30
2018-06-24T23:33:05.945Z,3.10
2018-06-24T23:35:39.014Z,3.37
2018-06-24T23:38:12.236Z,3.30
2018-06-24T23:40:45.324Z,3.00
2018-06-24T23:43:18.584Z,4.17
2018-06-24T23:45:51.743Z,3.03
2018-06-24T23:48:24.904Z,4.80
2018-06-24T23:50:58.007Z,4.20
2018-06-24T23:53:31.052Z,4.60
2018-06-24T23:56:04.375Z,4.47
2018-06-24T23:58:42.989Z,4.30
